sensor_id;sensor_type;location;lat;lon;timestamp;P1;durP1;ratioP1;P2;durP2;ratioP2
23696;SDS011;48864;50.820;4.400;2022-08-25T00:00:35;9.43;;;7.00;;
23696;SDS011;48864;50.820;4.400;2022-08-25T00:03:01;7.78;;;7.18;;
23696;SDS011;48864;50.820;4.400;2022-08-25T00:05:27;10.07;;;7.18;;
23696;SDS011;48864;50.820;4.400;2022-08-25T00:07:54;9.80;;;6.95;;
23696;SDS011;48864;50.820;4.400;2022-08-25T00:10:19;8.30;;;7.50;;
23696;SDS011;48864;50.820;4.400;2022-08-25T00:12:45;8.30;;;7.45;;
23696;SDS011;48864;50.820;4.400;2022-08-25T00:15:10;7.90;;;7.10;;
23696;SDS011;48864;50.820;4.400;2022-08-25T00:17:36;9.18;;;7.80;;
23696;SDS011;48864;50.820;4.400;2022-08-25T00:20:03;9.18;;;6.72;;
23696;SDS011;48864;50.820;4.400;2022-08-25T00:22:30;8.43;;;7.55;;
23696;SDS011;48864;50.820;4.400;2022-08-25T00:24:55;8.18;;;7.38;;
23696;SDS011;48864;50.820;4.400;2022-08-25T00:27:21;8.13;;;7.32;;
23696;SDS011;48864;50.820;4.400;2022-08-25T00:29:47;8.15;;;7.45;;
23696;SDS011;48864;50.820;4.400;2022-08-25T00:32:12;7.78;;;7.13;;
23696;SDS011;48864;50.820;4.400;2022-08-25T00:34:39;15.13;;;8.18;;
23696;SDS011;48864;50.820;4.400;2022-08-25T00:37:05;8.18;;;7.57;;
23696;SDS011;48864;50.820;4.400;2022-08-25T00:39:33;8.18;;;7.35;;
23696;SDS011;48864;50.820;4.400;2022-08-25T00:41:59;10.98;;;7.43;;
23696;SDS011;48864;50.820;4.400;2022-08-25T00:44:26;8.52;;;7.72;;
23696;SDS011;48864;50.820;4.400;2022-08-25T00:46:54;9.48;;;7.65;;
23696;SDS011;48864;50.820;4.400;2022-08-25T00:49:31;12.50;;;7.55;;
23696;SDS011;48864;50.820;4.400;2022-08-25T00:54:51;7.97;;;7.18;;
23696;SDS011;48864;50.820;4.400;2022-08-25T00:57:25;8.43;;;6.72;;
23696;SDS011;48864;50.820;4.400;2022-08-25T00:59:56;8.38;;;7.22;;
23696;SDS011;48864;50.820;4.400;2022-08-25T01:02:22;7.78;;;7.13;;
23696;SDS011;48864;50.820;4.400;2022-08-25T01:04:48;7.75;;;7.07;;
23696;SDS011;48864;50.820;4.400;2022-08-25T01:07:14;7.90;;;7.20;;
23696;SDS011;48864;50.820;4.400;2022-08-25T01:09:43;10.32;;;7.15;;
23696;SDS011;48864;50.820;4.400;2022-08-25T01:12:10;8.10;;;7.28;;
23696;SDS011;48864;50.820;4.400;2022-08-25T01:14:36;10.77;;;7.20;;
23696;SDS011;48864;50.820;4.400;2022-08-25T01:17:02;8.15;;;7.20;;
23696;SDS011;48864;50.820;4.400;2022-08-25T01:19:29;8.02;;;7.32;;
23696;SDS011;48864;50.820;4.400;2022-08-25T01:21:57;7.43;;;6.75;;
23696;SDS011;48864;50.820;4.400;2022-08-25T01:27:09;9.35;;;7.68;;
23696;SDS011;48864;50.820;4.400;2022-08-25T01:29:35;9.00;;;7.55;;
23696;SDS011;48864;50.820;4.400;2022-08-25T01:32:03;7.63;;;6.82;;
23696;SDS011;48864;50.820;4.400;2022-08-25T01:34:32;8.23;;;7.32;;
23696;SDS011;48864;50.820;4.400;2022-08-25T01:37:01;8.90;;;7.55;;
23696;SDS011;48864;50.820;4.400;2022-08-25T01:39:28;11.48;;;8.18;;
23696;SDS011;48864;50.820;4.400;2022-08-25T01:44:42;7.82;;;7.13;;
23696;SDS011;48864;50.820;4.400;2022-08-25T01:47:09;9.88;;;8.35;;
23696;SDS011;48864;50.820;4.400;2022-08-25T01:49:35;8.82;;;7.85;;
23696;SDS011;48864;50.820;4.400;2022-08-25T01:52:06;8.38;;;7.65;;
23696;SDS011;48864;50.820;4.400;2022-08-25T01:54:56;7.95;;;7.25;;
23696;SDS011;48864;50.820;4.400;2022-08-25T01:57:22;8.80;;;7.60;;
23696;SDS011;48864;50.820;4.400;2022-08-25T01:59:47;7.80;;;6.70;;
23696;SDS011;48864;50.820;4.400;2022-08-25T02:02:13;9.85;;;7.53;;
23696;SDS011;48864;50.820;4.400;2022-08-25T02:04:39;8.43;;;7.50;;
23696;SDS011;48864;50.820;4.400;2022-08-25T02:07:05;9.30;;;7.63;;
23696;SDS011;48864;50.820;4.400;2022-08-25T02:09:32;8.18;;;7.32;;
23696;SDS011;48864;50.820;4.400;2022-08-25T02:11:59;8.45;;;7.40;;
23696;SDS011;48864;50.820;4.400;2022-08-25T02:14:25;9.65;;;7.35;;
23696;SDS011;48864;50.820;4.400;2022-08-25T02:16:52;9.00;;;7.35;;
23696;SDS011;48864;50.820;4.400;2022-08-25T02:19:18;8.25;;;7.03;;
23696;SDS011;48864;50.820;4.400;2022-08-25T02:21:46;9.02;;;7.30;;
23696;SDS011;48864;50.820;4.400;2022-08-25T02:24:12;8.65;;;7.90;;
23696;SDS011;48864;50.820;4.400;2022-08-25T02:26:38;8.95;;;8.13;;
23696;SDS011;48864;50.820;4.400;2022-08-25T02:29:04;9.43;;;8.43;;
23696;SDS011;48864;50.820;4.400;2022-08-25T02:31:31;8.93;;;8.07;;
23696;SDS011;48864;50.820;4.400;2022-08-25T02:33:58;9.00;;;8.10;;
23696;SDS011;48864;50.820;4.400;2022-08-25T02:36:23;8.63;;;7.82;;
23696;SDS011;48864;50.820;4.400;2022-08-25T02:38:49;9.73;;;8.35;;
23696;SDS011;48864;50.820;4.400;2022-08-25T02:41:17;12.00;;;8.48;;
23696;SDS011;48864;50.820;4.400;2022-08-25T02:43:45;9.15;;;8.38;;
23696;SDS011;48864;50.820;4.400;2022-08-25T02:46:12;8.85;;;8.05;;
23696;SDS011;48864;50.820;4.400;2022-08-25T02:48:39;8.55;;;7.65;;
23696;SDS011;48864;50.820;4.400;2022-08-25T02:51:06;8.77;;;7.60;;
23696;SDS011;48864;50.820;4.400;2022-08-25T02:53:33;8.93;;;7.60;;
23696;SDS011;48864;50.820;4.400;2022-08-25T02:56:02;9.05;;;7.05;;
23696;SDS011;48864;50.820;4.400;2022-08-25T02:58:28;8.07;;;7.38;;
23696;SDS011;48864;50.820;4.400;2022-08-25T03:00:54;7.32;;;6.63;;
23696;SDS011;48864;50.820;4.400;2022-08-25T03:03:20;7.95;;;6.97;;
23696;SDS011;48864;50.820;4.400;2022-08-25T03:05:46;9.48;;;6.90;;
23696;SDS011;48864;50.820;4.400;2022-08-25T03:08:12;9.85;;;7.65;;
23696;SDS011;48864;50.820;4.400;2022-08-25T03:10:38;11.50;;;7.40;;
23696;SDS011;48864;50.820;4.400;2022-08-25T03:13:04;6.95;;;6.45;;
23696;SDS011;48864;50.820;4.400;2022-08-25T03:15:29;7.15;;;6.47;;
23696;SDS011;48864;50.820;4.400;2022-08-25T03:17:55;7.63;;;6.93;;
23696;SDS011;48864;50.820;4.400;2022-08-25T03:20:21;8.05;;;7.00;;
23696;SDS011;48864;50.820;4.400;2022-08-25T03:22:48;7.53;;;6.55;;
23696;SDS011;48864;50.820;4.400;2022-08-25T03:25:17;6.85;;;6.20;;
23696;SDS011;48864;50.820;4.400;2022-08-25T03:28:01;7.40;;;6.43;;
23696;SDS011;48864;50.820;4.400;2022-08-25T03:30:28;8.10;;;6.18;;
23696;SDS011;48864;50.820;4.400;2022-08-25T03:32:54;6.68;;;5.93;;
23696;SDS011;48864;50.820;4.400;2022-08-25T03:35:20;7.90;;;6.65;;
23696;SDS011;48864;50.820;4.400;2022-08-25T03:37:46;7.55;;;6.05;;
23696;SDS011;48864;50.820;4.400;2022-08-25T03:40:13;11.27;;;6.28;;
23696;SDS011;48864;50.820;4.400;2022-08-25T03:42:40;7.15;;;6.47;;
23696;SDS011;48864;50.820;4.400;2022-08-25T03:45:07;8.02;;;6.53;;
23696;SDS011;48864;50.820;4.400;2022-08-25T03:47:35;6.82;;;6.20;;
23696;SDS011;48864;50.820;4.400;2022-08-25T03:50:06;7.05;;;6.10;;
23696;SDS011;48864;50.820;4.400;2022-08-25T03:52:34;6.82;;;5.68;;
23696;SDS011;48864;50.820;4.400;2022-08-25T03:55:02;7.85;;;6.25;;
23696;SDS011;48864;50.820;4.400;2022-08-25T03:57:29;8.40;;;5.78;;
23696;SDS011;48864;50.820;4.400;2022-08-25T03:59:54;7.30;;;5.93;;
23696;SDS011;48864;50.820;4.400;2022-08-25T04:02:20;6.22;;;5.72;;
23696;SDS011;48864;50.820;4.400;2022-08-25T04:04:46;9.63;;;5.43;;
23696;SDS011;48864;50.820;4.400;2022-08-25T04:07:11;7.13;;;6.43;;
23696;SDS011;48864;50.820;4.400;2022-08-25T04:09:37;8.80;;;6.70;;
23696;SDS011;48864;50.820;4.400;2022-08-25T04:12:02;11.18;;;6.63;;
23696;SDS011;48864;50.820;4.400;2022-08-25T04:14:28;9.02;;;6.90;;
23696;SDS011;48864;50.820;4.400;2022-08-25T04:16:55;10.98;;;6.90;;
23696;SDS011;48864;50.820;4.400;2022-08-25T04:19:20;10.02;;;7.43;;
23696;SDS011;48864;50.820;4.400;2022-08-25T04:21:46;9.18;;;6.30;;
23696;SDS011;48864;50.820;4.400;2022-08-25T04:24:12;10.43;;;6.95;;
23696;SDS011;48864;50.820;4.400;2022-08-25T04:26:40;6.85;;;6.25;;
23696;SDS011;48864;50.820;4.400;2022-08-25T04:29:07;8.02;;;6.28;;
23696;SDS011;48864;50.820;4.400;2022-08-25T04:31:37;45.65;;;42.92;;
23696;SDS011;48864;50.820;4.400;2022-08-25T04:34:04;46.97;;;44.08;;
23696;SDS011;48864;50.820;4.400;2022-08-25T04:36:31;46.80;;;43.78;;
23696;SDS011;48864;50.820;4.400;2022-08-25T04:38:57;44.90;;;42.03;;
23696;SDS011;48864;50.820;4.400;2022-08-25T04:41:22;46.75;;;43.28;;
23696;SDS011;48864;50.820;4.400;2022-08-25T04:43:49;51.83;;;47.40;;
23696;SDS011;48864;50.820;4.400;2022-08-25T04:46:20;46.28;;;43.40;;
23696;SDS011;48864;50.820;4.400;2022-08-25T04:48:51;46.67;;;43.80;;
23696;SDS011;48864;50.820;4.400;2022-08-25T04:51:22;44.15;;;41.53;;
23696;SDS011;48864;50.820;4.400;2022-08-25T04:53:53;44.33;;;41.75;;
23696;SDS011;48864;50.820;4.400;2022-08-25T04:56:21;44.15;;;41.30;;
23696;SDS011;48864;50.820;4.400;2022-08-25T04:58:51;45.97;;;42.83;;
23696;SDS011;48864;50.820;4.400;2022-08-25T05:01:18;45.65;;;42.67;;
23696;SDS011;48864;50.820;4.400;2022-08-25T05:03:46;46.25;;;42.88;;
23696;SDS011;48864;50.820;4.400;2022-08-25T05:06:16;45.25;;;42.45;;
23696;SDS011;48864;50.820;4.400;2022-08-25T05:08:42;44.90;;;42.35;;
23696;SDS011;48864;50.820;4.400;2022-08-25T05:11:09;44.15;;;41.13;;
23696;SDS011;48864;50.820;4.400;2022-08-25T05:13:38;44.67;;;42.03;;
23696;SDS011;48864;50.820;4.400;2022-08-25T05:16:04;43.17;;;40.60;;
23696;SDS011;48864;50.820;4.400;2022-08-25T05:18:30;42.78;;;40.38;;
23696;SDS011;48864;50.820;4.400;2022-08-25T05:21:05;43.53;;;41.03;;
23696;SDS011;48864;50.820;4.400;2022-08-25T05:23:32;45.70;;;43.08;;
23696;SDS011;48864;50.820;4.400;2022-08-25T05:26:03;44.13;;;41.63;;
23696;SDS011;48864;50.820;4.400;2022-08-25T05:28:39;43.25;;;40.70;;
23696;SDS011;48864;50.820;4.400;2022-08-25T05:31:06;42.13;;;39.55;;
23696;SDS011;48864;50.820;4.400;2022-08-25T05:33:34;42.55;;;39.92;;
23696;SDS011;48864;50.820;4.400;2022-08-25T05:36:00;44.25;;;41.53;;
23696;SDS011;48864;50.820;4.400;2022-08-25T05:38:26;42.67;;;40.08;;
23696;SDS011;48864;50.820;4.400;2022-08-25T05:40:55;42.72;;;40.13;;
23696;SDS011;48864;50.820;4.400;2022-08-25T05:43:22;44.25;;;41.20;;
23696;SDS011;48864;50.820;4.400;2022-08-25T05:45:48;45.38;;;42.78;;
23696;SDS011;48864;50.820;4.400;2022-08-25T05:48:14;43.53;;;41.03;;
23696;SDS011;48864;50.820;4.400;2022-08-25T05:50:40;43.15;;;40.72;;
23696;SDS011;48864;50.820;4.400;2022-08-25T05:53:05;43.90;;;41.22;;
23696;SDS011;48864;50.820;4.400;2022-08-25T05:55:31;42.85;;;40.25;;
23696;SDS011;48864;50.820;4.400;2022-08-25T05:57:56;43.85;;;41.35;;
23696;SDS011;48864;50.820;4.400;2022-08-25T06:00:22;43.85;;;41.22;;
23696;SDS011;48864;50.820;4.400;2022-08-25T06:02:48;43.63;;;41.00;;
23696;SDS011;48864;50.820;4.400;2022-08-25T06:05:16;44.47;;;41.70;;
23696;SDS011;48864;50.820;4.400;2022-08-25T06:07:45;40.03;;;37.80;;
23696;SDS011;48864;50.820;4.400;2022-08-25T06:10:12;42.17;;;39.80;;
23696;SDS011;48864;50.820;4.400;2022-08-25T06:12:39;41.28;;;38.97;;
23696;SDS011;48864;50.820;4.400;2022-08-25T06:15:09;40.97;;;38.70;;
23696;SDS011;48864;50.820;4.400;2022-08-25T06:17:38;44.03;;;41.33;;
23696;SDS011;48864;50.820;4.400;2022-08-25T06:20:09;44.83;;;42.25;;
23696;SDS011;48864;50.820;4.400;2022-08-25T06:22:39;42.03;;;39.63;;
23696;SDS011;48864;50.820;4.400;2022-08-25T06:25:09;44.83;;;42.00;;
23696;SDS011;48864;50.820;4.400;2022-08-25T06:31:02;47.13;;;44.28;;
23696;SDS011;48864;50.820;4.400;2022-08-25T06:33:29;45.92;;;43.35;;
23696;SDS011;48864;50.820;4.400;2022-08-25T06:35:55;47.15;;;44.55;;
23696;SDS011;48864;50.820;4.400;2022-08-25T06:38:28;46.08;;;43.55;;
23696;SDS011;48864;50.820;4.400;2022-08-25T06:43:54;47.28;;;44.50;;
23696;SDS011;48864;50.820;4.400;2022-08-25T06:46:37;47.53;;;44.60;;
23696;SDS011;48864;50.820;4.400;2022-08-25T06:49:04;48.35;;;45.45;;
23696;SDS011;48864;50.820;4.400;2022-08-25T06:51:31;48.42;;;45.13;;
23696;SDS011;48864;50.820;4.400;2022-08-25T06:54:00;45.85;;;42.92;;
23696;SDS011;48864;50.820;4.400;2022-08-25T06:56:28;47.03;;;44.08;;
23696;SDS011;48864;50.820;4.400;2022-08-25T06:58:57;47.15;;;44.30;;
23696;SDS011;48864;50.820;4.400;2022-08-25T07:01:25;7.03;;;6.43;;
23696;SDS011;48864;50.820;4.400;2022-08-25T07:03:57;7.95;;;6.97;;
23696;SDS011;48864;50.820;4.400;2022-08-25T07:06:24;7.82;;;7.05;;
23696;SDS011;48864;50.820;4.400;2022-08-25T07:08:52;9.27;;;7.95;;
23696;SDS011;48864;50.820;4.400;2022-08-25T07:11:19;7.60;;;7.00;;
23696;SDS011;48864;50.820;4.400;2022-08-25T07:13:45;8.02;;;7.40;;
23696;SDS011;48864;50.820;4.400;2022-08-25T07:16:26;7.63;;;6.93;;
23696;SDS011;48864;50.820;4.400;2022-08-25T07:18:58;8.55;;;6.75;;
23696;SDS011;48864;50.820;4.400;2022-08-25T07:21:27;7.82;;;6.82;;
23696;SDS011;48864;50.820;4.400;2022-08-25T07:24:06;11.20;;;7.28;;
23696;SDS011;48864;50.820;4.400;2022-08-25T07:26:34;7.05;;;6.53;;
23696;SDS011;48864;50.820;4.400;2022-08-25T07:34:01;7.18;;;6.43;;
23696;SDS011;48864;50.820;4.400;2022-08-25T07:36:49;8.10;;;7.15;;
23696;SDS011;48864;50.820;4.400;2022-08-25T07:39:14;6.80;;;6.30;;
23696;SDS011;48864;50.820;4.400;2022-08-25T07:41:49;7.40;;;6.85;;
23696;SDS011;48864;50.820;4.400;2022-08-25T07:44:18;9.93;;;7.43;;
23696;SDS011;48864;50.820;4.400;2022-08-25T07:46:45;7.50;;;6.80;;
23696;SDS011;48864;50.820;4.400;2022-08-25T07:49:12;8.13;;;7.30;;
23696;SDS011;48864;50.820;4.400;2022-08-25T07:51:51;8.15;;;7.35;;
23696;SDS011;48864;50.820;4.400;2022-08-25T07:54:21;7.30;;;6.63;;
23696;SDS011;48864;50.820;4.400;2022-08-25T07:56:49;7.95;;;7.10;;
23696;SDS011;48864;50.820;4.400;2022-08-25T08:01:43;7.43;;;6.90;;
23696;SDS011;48864;50.820;4.400;2022-08-25T08:04:18;8.90;;;6.97;;
23696;SDS011;48864;50.820;4.400;2022-08-25T08:06:51;6.82;;;6.35;;
23696;SDS011;48864;50.820;4.400;2022-08-25T08:11:45;8.93;;;7.72;;
23696;SDS011;48864;50.820;4.400;2022-08-25T08:16:43;7.30;;;6.60;;
23696;SDS011;48864;50.820;4.400;2022-08-25T08:24:37;8.15;;;7.45;;
23696;SDS011;48864;50.820;4.400;2022-08-25T08:27:09;8.40;;;6.80;;
23696;SDS011;48864;50.820;4.400;2022-08-25T08:29:38;7.53;;;6.93;;
23696;SDS011;48864;50.820;4.400;2022-08-25T08:32:14;7.95;;;7.15;;
23696;SDS011;48864;50.820;4.400;2022-08-25T08:34:43;7.63;;;7.03;;
23696;SDS011;48864;50.820;4.400;2022-08-25T08:39:47;7.20;;;6.70;;
23696;SDS011;48864;50.820;4.400;2022-08-25T08:51:34;8.32;;;6.95;;
23696;SDS011;48864;50.820;4.400;2022-08-25T08:54:13;8.75;;;6.85;;
23696;SDS011;48864;50.820;4.400;2022-08-25T08:56:48;10.23;;;7.03;;
23696;SDS011;48864;50.820;4.400;2022-08-25T08:59:30;9.07;;;7.55;;
23696;SDS011;48864;50.820;4.400;2022-08-25T09:02:05;8.10;;;7.28;;
23696;SDS011;48864;50.820;4.400;2022-08-25T09:05:00;9.68;;;6.97;;
23696;SDS011;48864;50.820;4.400;2022-08-25T09:07:44;7.32;;;6.72;;
23696;SDS011;48864;50.820;4.400;2022-08-25T09:10:25;7.53;;;6.88;;
23696;SDS011;48864;50.820;4.400;2022-08-25T09:16:15;7.22;;;6.68;;
23696;SDS011;48864;50.820;4.400;2022-08-25T09:22:12;7.22;;;6.50;;
23696;SDS011;48864;50.820;4.400;2022-08-25T09:30:13;7.25;;;6.32;;
23696;SDS011;48864;50.820;4.400;2022-08-25T09:32:56;9.90;;;7.45;;
23696;SDS011;48864;50.820;4.400;2022-08-25T09:35:29;7.90;;;7.20;;
23696;SDS011;48864;50.820;4.400;2022-08-25T09:46:25;7.75;;;7.15;;
23696;SDS011;48864;50.820;4.400;2022-08-25T09:48:55;8.43;;;7.68;;
23696;SDS011;48864;50.820;4.400;2022-08-25T09:51:48;8.60;;;7.30;;
23696;SDS011;48864;50.820;4.400;2022-08-25T09:54:21;7.10;;;6.50;;
23696;SDS011;48864;50.820;4.400;2022-08-25T09:56:58;8.68;;;7.60;;
23696;SDS011;48864;50.820;4.400;2022-08-25T09:59:42;7.60;;;7.10;;
23696;SDS011;48864;50.820;4.400;2022-08-25T10:02:26;7.80;;;7.10;;
23696;SDS011;48864;50.820;4.400;2022-08-25T10:10:52;8.77;;;7.15;;
23696;SDS011;48864;50.820;4.400;2022-08-25T10:13:19;7.38;;;6.85;;
23696;SDS011;48864;50.820;4.400;2022-08-25T10:15:47;8.13;;;7.32;;
23696;SDS011;48864;50.820;4.400;2022-08-25T10:19:07;7.75;;;6.93;;
23696;SDS011;48864;50.820;4.400;2022-08-25T10:22:10;10.23;;;8.00;;
23696;SDS011;48864;50.820;4.400;2022-08-25T10:25:08;8.35;;;7.55;;
23696;SDS011;48864;50.820;4.400;2022-08-25T10:28:14;9.98;;;7.50;;
23696;SDS011;48864;50.820;4.400;2022-08-25T10:37:40;9.35;;;8.45;;
23696;SDS011;48864;50.820;4.400;2022-08-25T10:40:24;8.85;;;8.25;;
23696;SDS011;48864;50.820;4.400;2022-08-25T10:46:25;9.00;;;8.10;;
23696;SDS011;48864;50.820;4.400;2022-08-25T10:52:04;8.75;;;8.15;;
23696;SDS011;48864;50.820;4.400;2022-08-25T11:00:22;10.18;;;8.25;;
23696;SDS011;48864;50.820;4.400;2022-08-25T11:11:32;14.25;;;9.43;;
23696;SDS011;48864;50.820;4.400;2022-08-25T11:14:38;9.20;;;8.50;;
23696;SDS011;48864;50.820;4.400;2022-08-25T11:17:24;15.82;;;8.55;;
23696;SDS011;48864;50.820;4.400;2022-08-25T11:19:59;12.02;;;8.60;;
23696;SDS011;48864;50.820;4.400;2022-08-25T11:22:36;9.80;;;8.90;;
23696;SDS011;48864;50.820;4.400;2022-08-25T11:31:23;9.30;;;8.60;;
23696;SDS011;48864;50.820;4.400;2022-08-25T11:36:49;8.93;;;8.20;;
23696;SDS011;48864;50.820;4.400;2022-08-25T11:51:45;8.57;;;7.95;;
23696;SDS011;48864;50.820;4.400;2022-08-25T11:54:17;8.85;;;8.15;;
23696;SDS011;48864;50.820;4.400;2022-08-25T12:36:10;9.65;;;8.73;;
23696;SDS011;48864;50.820;4.400;2022-08-25T12:41:57;10.35;;;9.38;;
23696;SDS011;48864;50.820;4.400;2022-08-25T12:44:43;9.63;;;8.73;;
23696;SDS011;48864;50.820;4.400;2022-08-25T12:58:46;9.55;;;9.00;;
23696;SDS011;48864;50.820;4.400;2022-08-25T13:01:51;9.68;;;8.73;;
23696;SDS011;48864;50.820;4.400;2022-08-25T13:16:51;9.50;;;8.63;;
23696;SDS011;48864;50.820;4.400;2022-08-25T13:19:21;9.43;;;8.82;;
23696;SDS011;48864;50.820;4.400;2022-08-25T13:25:16;9.80;;;8.95;;
23696;SDS011;48864;50.820;4.400;2022-08-25T13:28:00;9.18;;;8.48;;
23696;SDS011;48864;50.820;4.400;2022-08-25T13:30:32;9.38;;;8.68;;
23696;SDS011;48864;50.820;4.400;2022-08-25T13:35:46;10.20;;;9.38;;
23696;SDS011;48864;50.820;4.400;2022-08-25T13:43:33;9.05;;;8.20;;
23696;SDS011;48864;50.820;4.400;2022-08-25T13:46:05;9.32;;;8.63;;
23696;SDS011;48864;50.820;4.400;2022-08-25T13:48:34;10.02;;;9.23;;
23696;SDS011;48864;50.820;4.400;2022-08-25T13:51:09;10.15;;;9.25;;
23696;SDS011;48864;50.820;4.400;2022-08-25T13:53:50;9.55;;;8.93;;
23696;SDS011;48864;50.820;4.400;2022-08-25T13:56:39;9.90;;;8.85;;
23696;SDS011;48864;50.820;4.400;2022-08-25T13:59:23;9.57;;;8.48;;
23696;SDS011;48864;50.820;4.400;2022-08-25T14:02:03;9.60;;;8.98;;
23696;SDS011;48864;50.820;4.400;2022-08-25T14:04:46;9.80;;;9.20;;
23696;SDS011;48864;50.820;4.400;2022-08-25T14:21:39;11.82;;;10.50;;
23696;SDS011;48864;50.820;4.400;2022-08-25T14:27:10;12.65;;;11.05;;
23696;SDS011;48864;50.820;4.400;2022-08-25T14:35:25;13.15;;;11.77;;
23696;SDS011;48864;50.820;4.400;2022-08-25T14:46:19;14.55;;;10.98;;
23696;SDS011;48864;50.820;4.400;2022-08-25T14:49:01;11.57;;;10.43;;
23696;SDS011;48864;50.820;4.400;2022-08-25T14:51:29;11.60;;;10.55;;
23696;SDS011;48864;50.820;4.400;2022-08-25T14:56:56;16.75;;;10.70;;
23696;SDS011;48864;50.820;4.400;2022-08-25T14:59:22;13.60;;;10.90;;
23696;SDS011;48864;50.820;4.400;2022-08-25T15:01:48;64.55;;;60.55;;
23696;SDS011;48864;50.820;4.400;2022-08-25T15:04:15;60.00;;;55.90;;
23696;SDS011;48864;50.820;4.400;2022-08-25T15:06:44;60.40;;;56.60;;
23696;SDS011;48864;50.820;4.400;2022-08-25T15:09:12;62.20;;;58.25;;
23696;SDS011;48864;50.820;4.400;2022-08-25T15:11:41;60.53;;;56.67;;
23696;SDS011;48864;50.820;4.400;2022-08-25T15:14:12;63.17;;;58.80;;
23696;SDS011;48864;50.820;4.400;2022-08-25T15:16:52;61.00;;;57.38;;
23696;SDS011;48864;50.820;4.400;2022-08-25T15:19:20;58.97;;;55.17;;
23696;SDS011;48864;50.820;4.400;2022-08-25T15:21:48;61.55;;;57.65;;
23696;SDS011;48864;50.820;4.400;2022-08-25T15:24:15;57.55;;;53.83;;
23696;SDS011;48864;50.820;4.400;2022-08-25T15:30:11;60.25;;;56.25;;
23696;SDS011;48864;50.820;4.400;2022-08-25T15:32:38;66.18;;;61.45;;
23696;SDS011;48864;50.820;4.400;2022-08-25T15:35:13;63.28;;;59.15;;
23696;SDS011;48864;50.820;4.400;2022-08-25T15:37:43;64.90;;;60.60;;
23696;SDS011;48864;50.820;4.400;2022-08-25T15:40:10;62.30;;;57.75;;
23696;SDS011;48864;50.820;4.400;2022-08-25T15:42:39;65.13;;;60.85;;
23696;SDS011;48864;50.820;4.400;2022-08-25T15:45:06;64.15;;;59.80;;
23696;SDS011;48864;50.820;4.400;2022-08-25T15:47:33;63.38;;;59.17;;
23696;SDS011;48864;50.820;4.400;2022-08-25T15:50:10;61.95;;;57.60;;
23696;SDS011;48864;50.820;4.400;2022-08-25T15:52:40;62.88;;;58.63;;
23696;SDS011;48864;50.820;4.400;2022-08-25T15:55:13;58.20;;;54.35;;
23696;SDS011;48864;50.820;4.400;2022-08-25T15:57:40;64.60;;;60.50;;
23696;SDS011;48864;50.820;4.400;2022-08-25T16:00:06;61.80;;;57.10;;
23696;SDS011;48864;50.820;4.400;2022-08-25T16:02:36;61.78;;;57.33;;
23696;SDS011;48864;50.820;4.400;2022-08-25T16:05:03;60.83;;;56.47;;
23696;SDS011;48864;50.820;4.400;2022-08-25T16:07:30;59.13;;;54.92;;
23696;SDS011;48864;50.820;4.400;2022-08-25T16:10:15;56.83;;;53.03;;
23696;SDS011;48864;50.820;4.400;2022-08-25T16:12:41;56.25;;;52.83;;
23696;SDS011;48864;50.820;4.400;2022-08-25T16:15:07;58.40;;;54.33;;
23696;SDS011;48864;50.820;4.400;2022-08-25T16:17:33;57.58;;;53.85;;
23696;SDS011;48864;50.820;4.400;2022-08-25T16:19:58;58.80;;;54.75;;
23696;SDS011;48864;50.820;4.400;2022-08-25T16:22:24;56.33;;;52.88;;
23696;SDS011;48864;50.820;4.400;2022-08-25T16:24:52;55.05;;;51.33;;
23696;SDS011;48864;50.820;4.400;2022-08-25T16:27:17;55.15;;;51.25;;
23696;SDS011;48864;50.820;4.400;2022-08-25T16:29:45;55.38;;;51.55;;
23696;SDS011;48864;50.820;4.400;2022-08-25T16:32:12;56.63;;;52.65;;
23696;SDS011;48864;50.820;4.400;2022-08-25T16:34:39;57.22;;;53.40;;
23696;SDS011;48864;50.820;4.400;2022-08-25T16:37:06;58.83;;;54.38;;
23696;SDS011;48864;50.820;4.400;2022-08-25T16:39:34;58.08;;;53.65;;
23696;SDS011;48864;50.820;4.400;2022-08-25T16:42:00;58.55;;;54.05;;
23696;SDS011;48864;50.820;4.400;2022-08-25T16:44:26;55.38;;;51.17;;
23696;SDS011;48864;50.820;4.400;2022-08-25T16:46:54;58.72;;;54.28;;
23696;SDS011;48864;50.820;4.400;2022-08-25T16:49:20;60.05;;;55.45;;
23696;SDS011;48864;50.820;4.400;2022-08-25T16:51:54;61.88;;;57.20;;
23696;SDS011;48864;50.820;4.400;2022-08-25T16:54:22;59.03;;;54.67;;
23696;SDS011;48864;50.820;4.400;2022-08-25T16:57:11;65.40;;;60.40;;
23696;SDS011;48864;50.820;4.400;2022-08-25T16:59:37;61.65;;;57.03;;
23696;SDS011;48864;50.820;4.400;2022-08-25T17:02:03;20.40;;;17.63;;
23696;SDS011;48864;50.820;4.400;2022-08-25T17:04:32;19.10;;;17.15;;
23696;SDS011;48864;50.820;4.400;2022-08-25T17:07:15;19.02;;;15.27;;
23696;SDS011;48864;50.820;4.400;2022-08-25T17:09:46;22.85;;;17.00;;
23696;SDS011;48864;50.820;4.400;2022-08-25T17:12:14;21.63;;;16.17;;
23696;SDS011;48864;50.820;4.400;2022-08-25T17:14:44;21.00;;;15.82;;
23696;SDS011;48864;50.820;4.400;2022-08-25T17:17:16;19.55;;;15.10;;
23696;SDS011;48864;50.820;4.400;2022-08-25T17:19:42;17.85;;;14.13;;
23696;SDS011;48864;50.820;4.400;2022-08-25T17:22:32;21.00;;;14.00;;
23696;SDS011;48864;50.820;4.400;2022-08-25T17:25:05;16.05;;;13.40;;
23696;SDS011;48864;50.820;4.400;2022-08-25T17:27:31;17.17;;;15.32;;
23696;SDS011;48864;50.820;4.400;2022-08-25T17:30:02;22.98;;;15.25;;
23696;SDS011;48864;50.820;4.400;2022-08-25T17:32:30;19.52;;;14.95;;
23696;SDS011;48864;50.820;4.400;2022-08-25T17:34:56;16.38;;;12.80;;
23696;SDS011;48864;50.820;4.400;2022-08-25T17:40:49;17.40;;;13.32;;
23696;SDS011;48864;50.820;4.400;2022-08-25T17:43:16;19.23;;;15.85;;
23696;SDS011;48864;50.820;4.400;2022-08-25T17:45:44;20.20;;;15.35;;
23696;SDS011;48864;50.820;4.400;2022-08-25T17:48:21;20.75;;;16.35;;
23696;SDS011;48864;50.820;4.400;2022-08-25T17:50:56;18.00;;;15.32;;
23696;SDS011;48864;50.820;4.400;2022-08-25T17:53:23;20.20;;;16.05;;
23696;SDS011;48864;50.820;4.400;2022-08-25T17:56:01;21.95;;;16.23;;
23696;SDS011;48864;50.820;4.400;2022-08-25T17:58:35;19.63;;;15.30;;
23696;SDS011;48864;50.820;4.400;2022-08-25T18:01:36;19.77;;;14.18;;
23696;SDS011;48864;50.820;4.400;2022-08-25T18:04:08;19.08;;;15.57;;
23696;SDS011;48864;50.820;4.400;2022-08-25T18:06:54;20.83;;;16.35;;
23696;SDS011;48864;50.820;4.400;2022-08-25T18:09:24;19.40;;;16.02;;
23696;SDS011;48864;50.820;4.400;2022-08-25T18:11:53;21.98;;;15.50;;
23696;SDS011;48864;50.820;4.400;2022-08-25T18:14:19;17.25;;;13.68;;
23696;SDS011;48864;50.820;4.400;2022-08-25T18:16:45;16.95;;;15.18;;
23696;SDS011;48864;50.820;4.400;2022-08-25T18:19:22;16.23;;;14.40;;
23696;SDS011;48864;50.820;4.400;2022-08-25T18:24:44;22.40;;;17.83;;
23696;SDS011;48864;50.820;4.400;2022-08-25T18:27:11;22.92;;;19.75;;
23696;SDS011;48864;50.820;4.400;2022-08-25T18:29:43;25.50;;;20.08;;
23696;SDS011;48864;50.820;4.400;2022-08-25T18:32:19;24.67;;;22.10;;
23696;SDS011;48864;50.820;4.400;2022-08-25T18:34:48;27.15;;;20.45;;
23696;SDS011;48864;50.820;4.400;2022-08-25T18:37:14;23.17;;;17.98;;
23696;SDS011;48864;50.820;4.400;2022-08-25T18:40:01;23.58;;;18.05;;
23696;SDS011;48864;50.820;4.400;2022-08-25T18:42:56;26.75;;;18.98;;
23696;SDS011;48864;50.820;4.400;2022-08-25T18:45:43;28.23;;;20.90;;
23696;SDS011;48864;50.820;4.400;2022-08-25T18:51:10;27.20;;;17.83;;
23696;SDS011;48864;50.820;4.400;2022-08-25T18:53:44;24.88;;;19.40;;
23696;SDS011;48864;50.820;4.400;2022-08-25T18:56:09;23.80;;;18.77;;
23696;SDS011;48864;50.820;4.400;2022-08-25T18:58:35;29.60;;;19.70;;
23696;SDS011;48864;50.820;4.400;2022-08-25T19:01:01;28.23;;;17.70;;